Map Display - LEAL to EGKK
(last flight recorded 28-07-2021, 20:56 - Adrian Smith)

Aircraft Weights    Units : Maximums
Passengers :   0  
Cargo : kg 42,000 kg
Suggested Fuel Load : kg 48,670 kg
 
     
 
Dry Operating : 84,000 kg    
Total Payload : 0 kg 42,000 kg
 
Take Off : 100,763 kg 165,000 kg
 
Expected Landing : 90,017 kg 136,000 kg

Andrew Siddall,  A30B ,  G-BMZK,  .

Route Distance Previous
Flights
Average
Duration
Average
Fuel Flow
Average
Fuel Use
LEAL - Alicante, Spain
EGKK - Gatwick, London
773 nm 1 02:30 4,298 kg/h 10,746 kg

Current weather :-
2021/07/28 18:27
TAF TAF LEAL 281700Z 2818/2918 08010KT 9999 SCT020 TX30/2912Z TN20/2906Z
BECMG 2820/2823 34003KT
BECMG 2908/2910 09010KT
2021/07/28 20:00
TAF
AMD EGKK 282058Z 2820/2924 23010KT 9999 SCT035 PROB30
TEMPO 2820/2822 6000 SHRA

Back to Virtual Airline